sensor_id;sensor_type;location;lat;lon;timestamp;P1;P2;P0
76043;PMS7003;64740;34.694;33.088;2023-04-24T08:31:31;12;10.7;7.9
76043;PMS7003;64740;34.694;33.088;2023-04-24T08:36:41;15.3;13.3;9.9
76043;PMS7003;64740;34.694;33.088;2023-04-24T08:41:09;14.3;12.9;9.8
76043;PMS7003;64740;34.694;33.088;2023-04-24T08:46:21;14.1;13.1;10
76043;PMS7003;64740;34.694;33.088;2023-04-24T08:51:45;14.5;12.2;9.2
76043;PMS7003;64740;34.694;33.088;2023-04-24T08:56:45;13.9;12.8;9.7
76043;PMS7003;64740;34.694;33.088;2023-04-24T09:01:09;13;11.9;8.7
76043;PMS7003;64740;34.694;33.088;2023-04-24T09:06:53;12.4;12.1;9.8
76043;PMS7003;64740;34.694;33.088;2023-04-24T09:11:29;13.9;12.2;8.9
76043;PMS7003;64740;34.694;33.088;2023-04-24T09:16:19;14;12.4;9.7
76043;PMS7003;64740;34.694;33.088;2023-04-24T09:21:39;13.1;12;9.2
76043;PMS7003;64740;34.694;33.088;2023-04-24T09:26:55;13.1;11.6;9.1
76043;PMS7003;64740;34.694;33.088;2023-04-24T09:31:19;15.6;13.6;10
76043;PMS7003;64740;34.694;33.088;2023-04-24T09:36:41;13.6;12.2;9.6
76043;PMS7003;64740;34.694;33.088;2023-04-24T09:41:43;13.9;12.2;9.5
76043;PMS7003;64740;34.694;33.088;2023-04-24T09:46:44;14.9;13;9.6
76043;PMS7003;64740;34.694;33.088;2023-04-24T09:51:35;14.5;13;9.5
76043;PMS7003;64740;34.694;33.088;2023-04-24T09:56:27;14.1;12.1;9.3
76043;PMS7003;64740;34.694;33.088;2023-04-24T10:01:51;12;11.4;8.9
76043;PMS7003;64740;34.694;33.088;2023-04-24T10:06:54;14.8;12.6;9.3
76043;PMS7003;64740;34.694;33.088;2023-04-24T10:11:33;12.4;11.1;8.8
76043;PMS7003;64740;34.694;33.088;2023-04-24T10:16:17;12.3;10.9;8
76043;PMS7003;64740;34.694;33.088;2023-04-24T10:21:31;13.2;12.5;10
76043;PMS7003;64740;34.694;33.088;2023-04-24T10:26:09;14.1;13.5;10.1
76043;PMS7003;64740;34.694;33.088;2023-04-24T10:31:33;12.9;11.8;8.9
76043;PMS7003;64740;34.694;33.088;2023-04-24T10:36:53;13.9;12.3;9.2
76043;PMS7003;64740;34.694;33.088;2023-04-24T10:41:21;13;12.2;9.2
76043;PMS7003;64740;34.694;33.088;2023-04-24T10:46:19;12.8;11.9;9
76043;PMS7003;64740;34.694;33.088;2023-04-24T10:51:53;13.4;11.7;9.1
76043;PMS7003;64740;34.694;33.088;2023-04-24T10:56:15;12.3;11.1;8.6
76043;PMS7003;64740;34.694;33.088;2023-04-24T11:01:39;13.2;11.9;9.2
76043;PMS7003;64740;34.694;33.088;2023-04-24T11:06:09;11;10.5;8
76043;PMS7003;64740;34.694;33.088;2023-04-24T11:11:44;12.8;12.3;9.5
76043;PMS7003;64740;34.694;33.088;2023-04-24T11:16:42;12.9;11.4;8.7
76043;PMS7003;64740;34.694;33.088;2023-04-24T11:21:31;12.5;11.7;9.3
76043;PMS7003;64740;34.694;33.088;2023-04-24T11:26:31;12.2;11.1;8.4
76043;PMS7003;64740;34.694;33.088;2023-04-24T11:31:44;12.3;11.1;8.5
76043;PMS7003;64740;34.694;33.088;2023-04-24T11:36:09;11.8;11.1;8.6
76043;PMS7003;64740;34.694;33.088;2023-04-24T11:41:31;12.5;11.4;8.8
76043;PMS7003;64740;34.694;33.088;2023-04-24T11:46:09;11.2;10;7.6
76043;PMS7003;64740;34.694;33.088;2023-04-24T11:51:27;11.3;10.2;8
76043;PMS7003;64740;34.694;33.088;2023-04-24T11:56:51;12.9;11.9;8.9
76043;PMS7003;64740;34.694;33.088;2023-04-24T12:01:45;12.1;11.4;8.7
76043;PMS7003;64740;34.694;33.088;2023-04-24T12:06:21;12;11.1;8.7
76043;PMS7003;64740;34.694;33.088;2023-04-24T12:11:52;11.6;10.9;8.5
76043;PMS7003;64740;34.694;33.088;2023-04-24T12:16:32;11.2;10.7;8.1
76043;PMS7003;64740;34.694;33.088;2023-04-24T12:21:31;11.8;10.5;8
76043;PMS7003;64740;34.694;33.088;2023-04-24T12:26:42;11.7;10.8;8
76043;PMS7003;64740;34.694;33.088;2023-04-24T12:31:55;11.8;10.5;8
76043;PMS7003;64740;34.694;33.088;2023-04-24T12:36:21;12.6;11.7;8.6
76043;PMS7003;64740;34.694;33.088;2023-04-24T12:41:55;11.5;10.7;8.3
76043;PMS7003;64740;34.694;33.088;2023-04-24T12:46:53;11.3;10.3;7.9
76043;PMS7003;64740;34.694;33.088;2023-04-24T12:51:11;11.1;10.4;8.3
76043;PMS7003;64740;34.694;33.088;2023-04-24T12:56:41;11;9.4;6.7
76043;PMS7003;64740;34.694;33.088;2023-04-24T13:01:45;11.9;10.2;8
76043;PMS7003;64740;34.694;33.088;2023-04-24T13:06:41;10.2;9;7.3
76043;PMS7003;64740;34.694;33.088;2023-04-24T13:11:19;12.3;11;7.9
76043;PMS7003;64740;34.694;33.088;2023-04-24T13:16:09;11;10.4;7.9
76043;PMS7003;64740;34.694;33.088;2023-04-24T13:21:51;11;9.7;7.3
76043;PMS7003;64740;34.694;33.088;2023-04-24T13:26:39;10.4;9.5;7.2
76043;PMS7003;64740;34.694;33.088;2023-04-24T13:31:09;9.4;8.6;6.9
76043;PMS7003;64740;34.694;33.088;2023-04-24T13:36:33;9.8;8.7;6.8
76043;PMS7003;64740;34.694;33.088;2023-04-24T13:41:39;10;9.6;7.3
76043;PMS7003;64740;34.694;33.088;2023-04-24T13:46:09;9.8;9.1;7.2
76043;PMS7003;64740;34.694;33.088;2023-04-24T13:51:32;10.7;9.8;7.5
76043;PMS7003;64740;34.694;33.088;2023-04-24T13:56:43;10.4;9.4;7.2
76043;PMS7003;64740;34.694;33.088;2023-04-24T14:01:21;10.8;9.3;7.2
76043;PMS7003;64740;34.694;33.088;2023-04-24T14:06:51;10.5;9.7;7.6
76043;PMS7003;64740;34.694;33.088;2023-04-24T14:11:09;10;8.9;6.6
76043;PMS7003;64740;34.694;33.088;2023-04-24T14:16:31;9.7;8.9;6.9
76043;PMS7003;64740;34.694;33.088;2023-04-24T14:21:39;9.6;9.2;7.3
76043;PMS7003;64740;34.694;33.088;2023-04-24T14:26:51;8.4;7.6;6.2
76043;PMS7003;64740;34.694;33.088;2023-04-24T14:31:19;9.6;8.1;6.2
76043;PMS7003;64740;34.694;33.088;2023-04-24T14:36:43;8.5;7.2;5.6
76043;PMS7003;64740;34.694;33.088;2023-04-24T14:41:41;8.4;7.7;6
76043;PMS7003;64740;34.694;33.088;2023-04-24T14:46:45;7;6.2;5
76043;PMS7003;64740;34.694;33.088;2023-04-24T14:51:35;7.7;6.7;5
76043;PMS7003;64740;34.694;33.088;2023-04-24T14:56:21;6.8;6.3;5.1
76043;PMS7003;64740;34.694;33.088;2023-04-24T15:01:51;5.8;5.5;4.4
76043;PMS7003;64740;34.694;33.088;2023-04-24T15:06:53;7;5.8;4.8
76043;PMS7003;64740;34.694;33.088;2023-04-24T15:11:21;6.7;6;5
76043;PMS7003;64740;34.694;33.088;2023-04-24T15:16:53;5.9;5.7;4.4
76043;PMS7003;64740;34.694;33.088;2023-04-24T15:21:31;7.4;6;4.5
76043;PMS7003;64740;34.694;33.088;2023-04-24T15:26:19;7;6.5;5.3
76043;PMS7003;64740;34.694;33.088;2023-04-24T15:31:31;6.2;5.8;4.6
76043;PMS7003;64740;34.694;33.088;2023-04-24T15:36:55;7;6.7;5.2
76043;PMS7003;64740;34.694;33.088;2023-04-24T15:41:19;6.7;6.1;4.9
76043;PMS7003;64740;34.694;33.088;2023-04-24T15:46:29;6.8;6.2;4.9
76043;PMS7003;64740;34.694;33.088;2023-04-24T15:51:55;7;6.4;5
76043;PMS7003;64740;34.694;33.088;2023-04-24T15:56:31;7.6;6.6;5.3
76043;PMS7003;64740;34.694;33.088;2023-04-24T16:01:41;7.1;6.5;4.9
76043;PMS7003;64740;34.694;33.088;2023-04-24T16:06:09;7.7;7.1;5.4
76043;PMS7003;64740;34.694;33.088;2023-04-24T16:11:43;8.9;7.7;5.6
76043;PMS7003;64740;34.694;33.088;2023-04-24T16:16:39;7.5;6.8;5.3
76043;PMS7003;64740;34.694;33.088;2023-04-24T16:21:31;7.5;6.8;5.3
76043;PMS7003;64740;34.694;33.088;2023-04-24T16:26:31;7.3;6.9;5.5
76043;PMS7003;64740;34.694;33.088;2023-04-24T16:31:39;8;7.5;5.8
76043;PMS7003;64740;34.694;33.088;2023-04-24T16:36:09;8.6;7.3;5.7
76043;PMS7003;64740;34.694;33.088;2023-04-24T16:41:31;8.2;7.4;5.8
76043;PMS7003;64740;34.694;33.088;2023-04-24T16:46:09;8.3;7.4;5.7
76043;PMS7003;64740;34.694;33.088;2023-04-24T16:51:27;10.2;9.3;7.4
76043;PMS7003;64740;34.694;33.088;2023-04-24T16:56:43;11;9.8;7.4
76043;PMS7003;64740;34.694;33.088;2023-04-24T17:01:45;9.4;8.9;7.1
76043;PMS7003;64740;34.694;33.088;2023-04-24T17:06:15;8.7;8.1;6.2
76043;PMS7003;64740;34.694;33.088;2023-04-24T17:11:53;8.9;7.9;6.2
76043;PMS7003;64740;34.694;33.088;2023-04-24T17:16:31;8.7;8;6.3
76043;PMS7003;64740;34.694;33.088;2023-04-24T17:21:09;9.2;9;7
76043;PMS7003;64740;34.694;33.088;2023-04-24T17:26:29;8.6;8;6.4
76043;PMS7003;64740;34.694;33.088;2023-04-24T17:31:41;9.7;8.7;7
76043;PMS7003;64740;34.694;33.088;2023-04-24T17:36:33;9.9;9.1;7.2
76043;PMS7003;64740;34.694;33.088;2023-04-24T17:41:41;8.8;8.2;6.4
76043;PMS7003;64740;34.694;33.088;2023-04-24T17:46:41;9.4;8;6.1
76043;PMS7003;64740;34.694;33.088;2023-04-24T17:51:45;9.5;9.1;7.1
76043;PMS7003;64740;34.694;33.088;2023-04-24T17:56:29;10.7;9.3;7.3
76043;PMS7003;64740;34.694;33.088;2023-04-24T18:01:21;10.2;9.1;7.4
76043;PMS7003;64740;34.694;33.088;2023-04-24T18:06:55;9.3;8.4;6.5
76043;PMS7003;64740;34.694;33.088;2023-04-24T18:11:41;10.6;9.2;7
76043;PMS7003;64740;34.694;33.088;2023-04-24T18:16:21;8.5;7.7;6.2
76043;PMS7003;64740;34.694;33.088;2023-04-24T18:21:55;9.7;8;6.5
76043;PMS7003;64740;34.694;33.088;2023-04-24T18:26:19;8.3;8.1;6.1
76043;PMS7003;64740;34.694;33.088;2023-04-24T18:31:09;7.9;7.6;6.1
76043;PMS7003;64740;34.694;33.088;2023-04-24T18:36:31;8.7;7.9;6.3
76043;PMS7003;64740;34.694;33.088;2023-04-24T18:41:55;9.9;8.9;7.1
76043;PMS7003;64740;34.694;33.088;2023-04-24T18:46:19;11.5;10.3;7.6
76043;PMS7003;64740;34.694;33.088;2023-04-24T18:51:27;11.6;10.7;8
76043;PMS7003;64740;34.694;33.088;2023-04-24T18:56:53;10.3;9.4;7.4
76043;PMS7003;64740;34.694;33.088;2023-04-24T19:01:41;10;9.8;7.6
76043;PMS7003;64740;34.694;33.088;2023-04-24T19:06:15;10.5;9.5;7.2
76043;PMS7003;64740;34.694;33.088;2023-04-24T19:11:19;9.7;8.6;6.8
76043;PMS7003;64740;34.694;33.088;2023-04-24T19:16:51;9.3;8.7;7.2
76043;PMS7003;64740;34.694;33.088;2023-04-24T19:21:39;9.9;9;7.2
76043;PMS7003;64740;34.694;33.088;2023-04-24T19:26:19;9.9;8.8;6.9
76043;PMS7003;64740;34.694;33.088;2023-04-24T19:31:21;9.2;8;6.2
76043;PMS7003;64740;34.694;33.088;2023-04-24T19:36:17;10;8.7;6.7
76043;PMS7003;64740;34.694;33.088;2023-04-24T19:41:09;11;9.2;7.2
76043;PMS7003;64740;34.694;33.088;2023-04-24T19:46:19;9.9;9.3;7.4
76043;PMS7003;64740;34.694;33.088;2023-04-24T19:51:19;9.3;8.1;6
76043;PMS7003;64740;34.694;33.088;2023-04-24T19:56:21;9.9;8.9;7
76043;PMS7003;64740;34.694;33.088;2023-04-24T20:01:51;9.5;8.8;6.7
76043;PMS7003;64740;34.694;33.088;2023-04-24T20:06:45;8.6;8.1;6.3
76043;PMS7003;64740;34.694;33.088;2023-04-24T20:11:09;9.7;8.7;6.7
76043;PMS7003;64740;34.694;33.088;2023-04-24T20:16:55;9.8;8.8;6.7
76043;PMS7003;64740;34.694;33.088;2023-04-24T20:21:09;9.2;8.3;6.4
76043;PMS7003;64740;34.694;33.088;2023-04-24T20:26:21;8.6;7.8;6.2
76043;PMS7003;64740;34.694;33.088;2023-04-24T20:31:39;9.2;7.8;6.5
76043;PMS7003;64740;34.694;33.088;2023-04-24T20:36:53;10;8.9;7.2
76043;PMS7003;64740;34.694;33.088;2023-04-24T20:41:19;9.4;8.2;6.3
76043;PMS7003;64740;34.694;33.088;2023-04-24T20:46:51;8.7;8;6.4
76043;PMS7003;64740;34.694;33.088;2023-04-24T20:51:39;9.6;8.1;6.1
76043;PMS7003;64740;34.694;33.088;2023-04-24T20:56:11;8.2;7.3;5.9
76043;PMS7003;64740;34.694;33.088;2023-04-24T21:01:25;9.2;8.2;6.5
76043;PMS7003;64740;34.694;33.088;2023-04-24T21:06:09;9;8.3;6.2
76043;PMS7003;64740;34.694;33.088;2023-04-24T21:11:49;7.9;7.6;6.1
76043;PMS7003;64740;34.694;33.088;2023-04-24T21:16:51;9.2;8.1;6.3
76043;PMS7003;64740;34.694;33.088;2023-04-24T21:21:09;8.7;7.8;6.2
76043;PMS7003;64740;34.694;33.088;2023-04-24T21:26:51;8.8;7.9;6.3
76043;PMS7003;64740;34.694;33.088;2023-04-24T21:31:09;8.1;7.5;6
76043;PMS7003;64740;34.694;33.088;2023-04-24T21:36:11;7.8;7.1;5.9
76043;PMS7003;64740;34.694;33.088;2023-04-24T21:41:33;8.3;7.7;6.2
76043;PMS7003;64740;34.694;33.088;2023-04-24T21:46:55;8.2;7.7;6.4
76043;PMS7003;64740;34.694;33.088;2023-04-24T21:51:21;9.1;7.9;6.1
76043;PMS7003;64740;34.694;33.088;2023-04-24T21:56:11;9.1;8.1;6.5
76043;PMS7003;64740;34.694;33.088;2023-04-24T22:01:55;8.4;7.8;6.2
76043;PMS7003;64740;34.694;33.088;2023-04-24T22:06:29;9;7.8;6.4
76043;PMS7003;64740;34.694;33.088;2023-04-24T22:11:11;8.1;7.6;6.1
76043;PMS7003;64740;34.694;33.088;2023-04-24T22:16:22;8.9;7.9;6.2
76043;PMS7003;64740;34.694;33.088;2023-04-24T22:21:53;8.8;7.9;6.2
76043;PMS7003;64740;34.694;33.088;2023-04-24T22:26:41;8.2;7;5.5
76043;PMS7003;64740;34.694;33.088;2023-04-24T22:31:11;7.8;7.6;5.9
76043;PMS7003;64740;34.694;33.088;2023-04-24T22:36:33;7.3;6.8;5.4
76043;PMS7003;64740;34.694;33.088;2023-04-24T22:41:43;8.3;7.8;6.1
76043;PMS7003;64740;34.694;33.088;2023-04-24T22:46:11;8.3;7.5;5.9
76043;PMS7003;64740;34.694;33.088;2023-04-24T22:51:33;7;6.3;5
76043;PMS7003;64740;34.694;33.088;2023-04-24T22:56:11;8.3;7.7;6
76043;PMS7003;64740;34.694;33.088;2023-04-24T23:01:11;8.7;8;6.4
76043;PMS7003;64740;34.694;33.088;2023-04-24T23:06:43;8.4;7.8;6
76043;PMS7003;64740;34.694;33.088;2023-04-24T23:11:35;8.3;7.6;5.9
76043;PMS7003;64740;34.694;33.088;2023-04-24T23:16:11;8;7.4;6
76043;PMS7003;64740;34.694;33.088;2023-04-24T23:21:48;7.9;6.6;5
76043;PMS7003;64740;34.694;33.088;2023-04-24T23:26:11;8.6;7.8;6.1
76043;PMS7003;64740;34.694;33.088;2023-04-24T23:31:23;8.2;7.1;5.7
76043;PMS7003;64740;34.694;33.088;2023-04-24T23:36:41;7.8;7.5;6
76043;PMS7003;64740;34.694;33.088;2023-04-24T23:41:53;8.9;7.6;5.9
76043;PMS7003;64740;34.694;33.088;2023-04-24T23:46:23;7.8;7.4;6
76043;PMS7003;64740;34.694;33.088;2023-04-24T23:51:53;8.3;7.1;5.6
76043;PMS7003;64740;34.694;33.088;2023-04-24T23:56:55;7.2;6.5;5.6
